Time;durP1;ratioP1;P1;durP2;ratioP2;P2;SDS_P1;SDS_P2;PMS_P1;PMS_P2;Temp;Humidity;BMP_temperature;BMP_pressure;BME280_temperature;BME280_humidity;BME280_pressure;Samples;Min_cycle;Max_cycle;Signal;HPM_P1;HPM_P2
2022/06/14 00:02:49;;;;;;;6.22;3.83;;;;;;;14.54;100.00;90961.41;5053988;28;20505;-72
2022/06/14 00:05:15;;;;;;;4.38;3.90;;;;;;;14.50;100.00;90965.84;5053646;28;20064;-72
2022/06/14 00:07:40;;;;;;;8.75;4.97;;;;;;;14.44;100.00;90962.59;5053749;28;20037;-72
2022/06/14 00:10:06;;;;;;;6.78;4.10;;;;;;;14.40;100.00;90975.06;5053619;28;20076;-72
2022/06/14 00:12:31;;;;;;;5.68;4.13;;;;;;;14.33;100.00;90972.13;5053541;28;20045;-72
2022/06/14 00:14:58;;;;;;;6.65;4.45;;;;;;;14.35;100.00;90968.00;5053577;28;20514;-72
2022/06/14 00:17:23;;;;;;;6.65;4.70;;;;;;;14.33;100.00;90970.22;5053853;28;20087;-71
2022/06/14 00:19:48;;;;;;;4.63;4.03;;;;;;;14.30;100.00;90973.56;5053536;28;20507;-71
2022/06/14 00:22:14;;;;;;;7.13;4.47;;;;;;;14.20;100.00;90965.97;5053436;28;20526;-71
2022/06/14 00:24:39;;;;;;;7.22;5.15;;;;;;;14.09;100.00;90976.28;5053427;28;20494;-71
2022/06/14 00:27:05;;;;;;;6.68;4.80;;;;;;;13.96;100.00;90980.00;5053517;28;20133;-71
2022/06/14 00:29:31;;;;;;;8.82;5.03;;;;;;;13.87;100.00;90983.84;5053312;28;20055;-70
2022/06/14 00:31:57;;;;;;;6.80;4.68;;;;;;;13.66;100.00;90984.63;5053266;28;20060;-70
2022/06/14 00:34:23;;;;;;;8.70;5.32;;;;;;;13.59;100.00;90983.59;5053510;28;20047;-70
2022/06/14 00:36:55;;;;;;;9.30;5.25;;;;;;;13.49;100.00;90984.75;5053208;28;20041;-70
2022/06/14 00:39:22;;;;;;;8.50;6.13;;;;;;;13.43;100.00;90992.19;5053181;28;20033;-70
2022/06/14 00:41:52;;;;;;;8.57;6.13;;;;;;;13.40;100.00;90992.81;5053016;28;20469;-70
2022/06/14 00:44:24;;;;;;;8.60;5.50;;;;;;;13.35;100.00;90982.31;5053183;28;20041;-70
2022/06/14 00:47:11;;;;;;;8.18;5.45;;;;;;;13.36;100.00;90981.22;5053014;28;20037;-70
2022/06/14 00:49:47;;;;;;;4.68;3.75;;;;;;;13.45;100.00;90978.50;5052856;28;20396;-70
2022/06/14 00:52:39;;;;;;;5.65;4.20;;;;;;;13.46;100.00;90975.50;5052780;28;20051;-70
2022/06/14 00:55:16;;;;;;;6.75;4.40;;;;;;;13.39;100.00;90966.41;5035039;28;20037;-70
2022/06/14 00:57:54;;;;;;;8.95;4.30;;;;;;;13.42;100.00;90969.25;5034417;28;20131;-70
2022/06/14 01:00:27;;;;;;;7.88;4.38;;;;;;;13.31;100.00;90967.28;5052762;28;20048;-70
2022/06/14 01:02:55;;;;;;;8.23;5.00;;;;;;;13.33;100.00;90973.84;5052624;28;20115;-70
2022/06/14 01:06:06;;;;;;;6.70;4.35;;;;;;;13.34;100.00;90964.72;5052479;28;20059;-70
2022/06/14 01:08:58;;;;;;;7.13;4.53;;;;;;;13.37;100.00;90971.31;5034693;28;20124;-70
2022/06/14 01:11:59;;;;;;;5.78;4.22;;;;;;;13.31;100.00;90973.41;5048437;28;20502;-71
2022/06/14 01:14:34;;;;;;;5.25;3.92;;;;;;;13.30;100.00;90971.84;5039054;28;20052;-70
2022/06/14 01:16:59;;;;;;;6.15;4.22;;;;;;;13.33;100.00;90955.16;5052472;28;20043;-70
2022/06/14 01:19:26;;;;;;;8.75;4.53;;;;;;;13.35;100.00;90952.16;5052498;28;20124;-70
2022/06/14 01:22:07;;;;;;;9.35;4.70;;;;;;;13.53;100.00;90958.94;5052347;28;20033;-71
2022/06/14 01:24:35;;;;;;;8.05;4.97;;;;;;;13.57;100.00;90953.72;5052245;28;20037;-70
2022/06/14 01:27:04;;;;;;;7.28;4.78;;;;;;;13.61;100.00;90955.44;5052228;28;20507;-69
2022/06/14 01:29:33;;;;;;;6.03;4.38;;;;;;;13.60;100.00;90959.22;5052062;28;20136;-69
2022/06/14 01:32:02;;;;;;;7.22;4.30;;;;;;;13.54;100.00;90965.84;5052056;28;20499;-71
2022/06/14 01:34:30;;;;;;;5.15;4.28;;;;;;;13.53;100.00;90966.19;5051928;28;20075;-71
2022/06/14 01:36:58;;;;;;;7.38;4.25;;;;;;;13.49;100.00;90974.84;5034078;28;20582;-70
2022/06/14 01:39:24;;;;;;;5.18;4.13;;;;;;;13.32;100.00;90966.94;5051940;28;20052;-71
2022/06/14 01:42:15;;;;;;;7.47;4.93;;;;;;;13.33;100.00;90987.22;5051871;28;20033;-71
2022/06/14 01:45:02;;;;;;;6.78;4.45;;;;;;;13.27;100.00;90988.50;5051893;28;20108;-71
2022/06/14 01:48:08;;;;;;;6.00;3.90;;;;;;;13.18;100.00;90985.09;5051822;28;20072;-70
2022/06/14 01:54:22;;;;;;;5.63;4.10;;;;;;;13.08;100.00;90994.22;5022694;28;20139;-71
2022/06/14 01:57:15;;;;;;;6.53;4.30;;;;;;;13.06;100.00;90984.97;5051647;28;20029;-70
2022/06/14 02:00:04;;;;;;;6.47;4.82;;;;;;;13.04;100.00;90984.50;5051853;28;20039;-70
2022/06/14 02:02:46;;;;;;;8.32;4.32;;;;;;;13.00;100.00;90984.38;5051412;28;20490;-71
2022/06/14 02:05:29;;;;;;;6.43;4.80;;;;;;;12.93;100.00;90977.94;5042473;28;20400;-71
2022/06/14 02:08:06;;;;;;;5.85;4.00;;;;;;;13.07;100.00;90987.31;5031554;28;20125;-71
2022/06/14 02:10:39;;;;;;;4.82;4.30;;;;;;;13.20;100.00;90980.22;5030595;28;20040;-71
2022/06/14 02:13:11;;;;;;;7.22;4.80;;;;;;;13.22;100.00;90978.00;5031419;28;20052;-71
2022/06/14 02:15:42;;;;;;;7.22;4.80;;;;;;;13.33;100.00;90984.53;5031435;28;20037;-71
2022/06/14 02:18:10;;;;;;;6.03;4.40;;;;;;;13.30;100.00;90976.41;5031363;28;20034;-71
2022/06/14 02:21:02;;;;;;;8.43;4.47;;;;;;;13.30;100.00;90979.06;5031382;28;20033;-71
2022/06/14 02:23:32;;;;;;;7.65;4.97;;;;;;;13.23;100.00;90960.84;5010285;28;20150;-71
2022/06/14 02:26:20;;;;;;;6.38;4.05;;;;;;;13.33;100.00;90967.72;5031324;28;20033;-71
2022/06/14 02:28:59;;;;;;;7.03;4.57;;;;;;;13.36;100.00;90972.41;5031266;28;20523;-71
2022/06/14 02:31:34;;;;;;;8.27;4.90;;;;;;;13.40;100.00;90971.44;5031268;28;20033;-71
2022/06/14 02:34:10;;;;;;;11.07;5.00;;;;;;;13.31;100.00;90977.97;5031064;28;20052;-71
2022/06/14 02:36:44;;;;;;;7.45;4.70;;;;;;;13.31;100.00;90992.09;5031115;28;20649;-72
2022/06/14 02:39:36;;;;;;;9.82;4.20;;;;;;;13.26;100.00;90975.47;5031392;28;20053;-72
2022/06/14 02:42:25;;;;;;;6.43;4.72;;;;;;;13.27;100.00;90983.16;5030964;28;20045;-71
2022/06/14 02:45:00;;;;;;;7.85;4.43;;;;;;;13.26;100.00;90988.84;5031024;28;20575;-72
2022/06/14 02:47:27;;;;;;;5.97;4.60;;;;;;;13.28;100.00;90987.41;5031069;28;20041;-72
2022/06/14 02:49:59;;;;;;;5.45;4.07;;;;;;;13.25;100.00;90990.69;5030954;28;20048;-72
2022/06/14 02:52:39;;;;;;;6.85;4.82;;;;;;;13.20;100.00;90996.22;5031014;28;20613;-72
2022/06/14 02:55:12;;;;;;;7.20;4.43;;;;;;;13.07;100.00;90989.97;5031291;28;20046;-71
2022/06/14 02:57:55;;;;;;;9.73;4.40;;;;;;;13.10;100.00;90992.03;5030978;28;20521;-71
2022/06/14 03:00:39;;;;;;;6.55;3.90;;;;;;;13.13;100.00;90995.94;5031000;28;20099;-70
2022/06/14 03:03:20;;;;;;;6.35;4.20;;;;;;;13.15;100.00;90999.84;5030861;28;20537;-71
2022/06/14 03:05:54;;;;;;;6.50;4.63;;;;;;;13.14;100.00;91000.16;5013049;28;20041;-72
2022/06/14 03:08:31;;;;;;;5.85;4.13;;;;;;;13.07;100.00;91005.22;5181732;22;20927;-73
2022/06/14 03:11:10;;;;;;;5.60;4.50;;;;;;;13.08;100.00;91006.78;5029871;28;20078;-72
2022/06/14 03:13:50;;;;;;;8.07;4.82;;;;;;;13.05;100.00;91007.44;5030860;28;20030;-72
2022/06/14 03:16:21;;;;;;;6.75;4.57;;;;;;;13.02;100.00;91016.09;5013081;28;20068;-72
2022/06/14 03:18:59;;;;;;;7.72;4.72;;;;;;;13.09;100.00;91013.69;5030739;28;20091;-72
2022/06/14 03:21:25;;;;;;;7.65;5.15;;;;;;;13.23;100.00;91016.19;5033058;28;20037;-72
2022/06/14 03:24:04;;;;;;;5.82;4.32;;;;;;;13.19;100.00;91016.03;5034701;28;20029;-72
2022/06/14 03:26:37;;;;;;;6.85;4.20;;;;;;;13.21;100.00;91016.50;5034639;28;20487;-72
2022/06/14 03:29:15;;;;;;;9.38;5.47;;;;;;;13.15;100.00;91015.88;5034732;28;20094;-72
2022/06/14 03:31:53;;;;;;;5.88;4.78;;;;;;;13.14;100.00;91027.66;5035005;28;20426;-72
2022/06/14 03:34:41;;;;;;;7.15;4.60;;;;;;;13.16;100.00;91022.00;5035005;28;20502;-72
2022/06/14 03:37:07;;;;;;;8.77;5.20;;;;;;;13.23;100.00;91021.50;5034843;28;20533;-72
2022/06/14 03:39:36;;;;;;;10.63;5.55;;;;;;;13.32;100.00;91023.06;5034894;28;20029;-72
2022/06/14 03:42:03;;;;;;;7.03;4.95;;;;;;;13.35;100.00;91001.03;5034442;28;20061;-71
2022/06/14 03:44:31;;;;;;;9.70;5.00;;;;;;;13.58;100.00;91030.94;5024774;28;20083;-74
2022/06/14 03:47:15;;;;;;;9.77;6.03;;;;;;;13.66;100.00;91016.72;5014263;28;20038;-73
2022/06/14 03:49:50;;;;;;;11.55;6.38;;;;;;;13.72;100.00;91015.41;5014075;28;20041;-72
2022/06/14 03:52:24;;;;;;;7.47;4.78;;;;;;;13.89;100.00;91005.72;5014160;28;20114;-71
2022/06/14 03:55:28;;;;;;;7.50;5.15;;;;;;;14.10;100.00;91017.19;4996458;28;20037;-71
2022/06/14 03:58:34;;;;;;;11.23;6.30;;;;;;;14.23;100.00;91015.38;5013658;28;20028;-71
2022/06/14 04:01:16;;;;;;;5.90;4.45;;;;;;;14.27;100.00;91018.94;4980148;28;20044;-70
2022/06/14 04:04:14;;;;;;;7.18;4.75;;;;;;;14.38;100.00;91012.09;5024564;28;20398;-70
2022/06/14 04:06:45;;;;;;;6.22;4.65;;;;;;;14.49;100.00;91005.22;5014713;28;20041;-72
2022/06/14 04:09:25;;;;;;;8.25;5.70;;;;;;;14.65;100.00;91008.84;5032793;28;20060;-71
2022/06/14 04:12:14;;;;;;;7.18;4.72;;;;;;;14.78;100.00;91008.88;5033132;28;20029;-71
2022/06/14 04:14:44;;;;;;;15.18;8.13;;;;;;;14.80;100.00;90993.25;5033045;28;20045;-71
2022/06/14 04:17:42;;;;;;;8.07;4.90;;;;;;;15.00;100.00;91019.19;5033547;28;20039;-71
2022/06/14 04:20:15;;;;;;;6.03;4.38;;;;;;;15.11;100.00;91011.47;5010779;28;20045;-71
2022/06/14 04:23:09;;;;;;;7.00;4.80;;;;;;;15.24;100.00;91013.84;5033615;28;20040;-70
2022/06/14 04:25:47;;;;;;;6.07;4.15;;;;;;;15.35;100.00;91016.09;5033552;28;20026;-71
2022/06/14 04:28:18;;;;;;;8.63;4.57;;;;;;;15.43;100.00;91028.59;5033362;28;20033;-71
2022/06/14 04:31:07;;;;;;;5.88;4.50;;;;;;;15.55;100.00;91026.69;5033420;28;20082;-71
2022/06/14 04:33:46;;;;;;;9.50;4.38;;;;;;;15.68;100.00;91032.88;5032737;28;20041;-71
2022/06/14 04:36:31;;;;;;;4.72;3.65;;;;;;;15.83;100.00;91026.81;5033507;28;20029;-72
2022/06/14 04:39:04;;;;;;;6.18;4.40;;;;;;;15.98;100.00;91024.56;5033307;28;20041;-72
2022/06/14 04:41:55;;;;;;;7.72;4.50;;;;;;;16.00;100.00;91019.63;5033084;28;20026;-72
2022/06/14 04:44:36;;;;;;;9.65;4.50;;;;;;;16.01;100.00;91029.25;5033142;28;20034;-73
2022/06/14 04:47:14;;;;;;;8.10;4.78;;;;;;;16.16;100.00;91031.22;5033494;28;20399;-73
2022/06/14 04:49:53;;;;;;;5.32;4.20;;;;;;;16.27;100.00;91028.84;5032985;28;20045;-72
2022/06/14 04:52:24;;;;;;;7.10;4.20;;;;;;;16.49;100.00;91031.00;5033109;28;20032;-73
2022/06/14 04:54:53;;;;;;;11.60;6.10;;;;;;;16.72;100.00;91036.63;5032981;28;20124;-73
2022/06/14 04:57:34;;;;;;;10.77;5.32;;;;;;;16.98;100.00;91038.88;5015274;28;20513;-72
2022/06/14 05:00:13;;;;;;;6.93;4.55;;;;;;;17.21;100.00;91039.09;5032885;28;20037;-72
2022/06/14 05:02:48;;;;;;;6.55;4.88;;;;;;;17.33;100.00;91049.75;5033153;28;20053;-72
2022/06/14 05:05:21;;;;;;;8.07;4.47;;;;;;;17.37;100.00;91056.00;5032880;28;20044;-72
2022/06/14 05:07:51;;;;;;;6.05;5.10;;;;;;;17.50;100.00;91057.47;5032825;28;20029;-72
2022/06/14 05:10:23;;;;;;;5.30;4.35;;;;;;;17.57;100.00;91064.94;5032270;28;20049;-71
2022/06/14 05:12:52;;;;;;;6.22;4.47;;;;;;;17.70;100.00;91065.69;5032666;28;20548;-71
2022/06/14 05:15:27;;;;;;;6.22;4.53;;;;;;;17.96;100.00;91071.28;5032648;28;20029;-71
2022/06/14 05:17:59;;;;;;;5.95;4.50;;;;;;;18.07;100.00;91066.91;5032554;28;20021;-72
2022/06/14 05:20:46;;;;;;;5.13;4.35;;;;;;;18.39;100.00;91066.84;5032517;28;20033;-71
2022/06/14 05:23:23;;;;;;;5.55;4.00;;;;;;;18.98;100.00;91065.78;5032469;28;20053;-72
2022/06/14 05:26:09;;;;;;;9.07;5.50;;;;;;;19.70;100.00;91068.63;5032682;28;20037;-71
2022/06/14 05:28:42;;;;;;;7.95;4.93;;;;;;;19.99;100.00;91070.63;5032217;28;20462;-71
2022/06/14 05:31:52;;;;;;;7.22;5.18;;;;;;;19.86;100.00;91069.25;5032251;28;20028;-71
2022/06/14 05:34:42;;;;;;;7.20;4.57;;;;;;;20.01;100.00;91076.44;5032220;28;20032;-72
2022/06/14 05:37:55;;;;;;;7.00;4.43;;;;;;;20.57;100.00;91088.50;5031783;28;20029;-71
2022/06/14 05:40:44;;;;;;;6.63;4.25;;;;;;;20.61;100.00;91073.88;5023253;28;20465;-71
2022/06/14 05:43:26;;;;;;;5.20;4.30;;;;;;;20.85;100.00;91085.41;5032045;28;20404;-71
2022/06/14 05:45:57;;;;;;;6.00;5.00;;;;;;;21.18;100.00;91080.00;5032075;28;20083;-71
2022/06/14 05:48:33;;;;;;;4.60;3.90;;;;;;;21.43;100.00;91091.09;5031876;28;20121;-71
2022/06/14 05:51:00;;;;;;;4.75;3.78;;;;;;;21.59;99.12;91080.06;5031663;28;20029;-71
2022/06/14 05:53:34;;;;;;;5.47;4.15;;;;;;;21.85;95.98;91083.78;5031799;28;20029;-70
2022/06/14 05:56:23;;;;;;;5.90;4.32;;;;;;;22.10;94.69;91087.53;5031826;28;20021;-69
2022/06/14 05:58:59;;;;;;;5.90;4.47;;;;;;;22.05;91.84;91085.13;5031635;28;20095;-69
2022/06/14 06:01:45;;;;;;;4.47;3.85;;;;;;;21.96;94.93;91081.94;5031735;28;20051;-69
2022/06/14 06:04:34;;;;;;;7.63;3.92;;;;;;;22.34;90.88;91088.84;5031683;28;20045;-70
2022/06/14 06:07:05;;;;;;;6.22;3.97;;;;;;;23.69;84.79;91086.06;5031669;28;20036;-73
2022/06/14 06:09:55;;;;;;;6.65;3.90;;;;;;;23.74;78.60;91091.09;5031119;28;20073;-71
2022/06/14 06:12:28;;;;;;;4.65;4.22;;;;;;;25.34;75.58;91097.22;5031732;28;20083;-72
2022/06/14 06:15:17;;;;;;;4.35;3.47;;;;;;;30.36;55.83;91098.97;5031794;28;20025;-71
2022/06/14 06:17:56;;;;;;;4.72;3.60;;;;;;;29.85;53.01;91100.44;5031730;28;20033;-71
2022/06/14 06:20:37;;;;;;;6.50;3.78;;;;;;;28.52;56.94;91089.53;5031449;28;20025;-72
2022/06/14 06:23:34;;;;;;;4.13;3.72;;;;;;;29.23;53.73;91099.28;5031475;28;20045;-72
2022/06/14 06:25:59;;;;;;;6.28;3.53;;;;;;;28.61;55.71;91084.31;5031334;28;20029;-73
2022/06/14 06:28:54;;;;;;;3.47;3.17;;;;;;;27.84;56.37;91090.50;5031149;28;20120;-70
2022/06/14 06:31:36;;;;;;;3.92;3.45;;;;;;;27.05;58.49;91098.81;5031036;28;20068;-70
2022/06/14 06:34:05;;;;;;;5.00;3.17;;;;;;;28.10;56.10;91099.13;5031365;28;20041;-70
2022/06/14 06:37:06;;;;;;;3.13;2.70;;;;;;;28.78;54.26;91096.91;5031094;28;20064;-69
2022/06/14 06:39:35;;;;;;;5.28;2.88;;;;;;;28.41;49.87;91102.63;5023600;28;20128;-72
2022/06/14 06:42:19;;;;;;;3.90;2.63;;;;;;;28.04;49.44;91104.28;5031338;28;20029;-73
2022/06/14 06:44:51;;;;;;;2.65;2.45;;;;;;;27.27;49.45;91095.84;5031338;28;20033;-74
2022/06/14 06:47:41;;;;;;;5.43;3.67;;;;;;;27.32;51.64;91081.75;5031075;28;20032;-73
2022/06/14 06:50:12;;;;;;;7.20;5.30;;;;;;;26.16;54.89;91106.91;5029281;28;20580;-74
2022/06/14 06:53:05;;;;;;;6.63;4.60;;;;;;;26.55;53.58;91109.41;5030731;28;20052;-75
2022/06/14 06:55:36;;;;;;;10.75;6.28;;;;;;;26.65;52.95;91105.78;5033076;28;20033;-74
2022/06/14 06:58:09;;;;;;;3.28;2.53;;;;;;;26.54;51.10;91111.34;5037209;28;20083;-74
2022/06/14 07:00:38;;;;;;;2.75;2.40;;;;;;;26.27;51.51;91118.53;5037463;28;20106;-74
2022/06/14 07:03:31;;;;;;;2.67;2.45;;;;;;;25.51;52.97;91117.38;5037469;28;20037;-73
2022/06/14 07:06:00;;;;;;;2.80;2.55;;;;;;;25.17;54.71;91125.28;5006812;28;20258;-73
2022/06/14 07:08:34;;;;;;;4.65;4.25;;;;;;;24.26;67.13;91118.72;5037132;28;20498;-73
2022/06/14 07:11:05;;;;;;;6.18;4.38;;;;;;;23.19;86.01;91118.41;5037101;28;20494;-73
2022/06/14 07:13:48;;;;;;;7.13;4.90;;;;;;;22.96;97.61;91130.34;5037350;28;20048;-73
2022/06/14 07:16:24;;;;;;;5.70;4.20;;;;;;;22.89;100.00;91118.69;5037147;28;20079;-71
2022/06/14 07:19:18;;;;;;;7.65;4.72;;;;;;;22.74;100.00;91131.34;5037121;28;20029;-72
2022/06/14 07:21:54;;;;;;;5.97;4.50;;;;;;;23.02;100.00;91134.22;5037105;28;20044;-72
2022/06/14 07:24:34;;;;;;;5.60;4.10;;;;;;;23.81;96.55;91129.13;5037106;28;20033;-71
2022/06/14 07:27:13;;;;;;;8.75;4.95;;;;;;;24.56;91.11;91129.25;5037215;28;20030;-72
2022/06/14 07:29:47;;;;;;;6.05;4.43;;;;;;;24.44;86.93;91133.91;5037062;28;20169;-72
2022/06/14 07:32:29;;;;;;;6.93;4.20;;;;;;;24.50;87.51;91128.88;5037575;28;20044;-71
2022/06/14 07:34:56;;;;;;;4.33;3.70;;;;;;;25.31;82.57;91136.13;5017409;28;20423;-71
2022/06/14 07:37:36;;;;;;;6.68;4.78;;;;;;;24.54;76.89;91139.75;5014197;28;20304;-69
2022/06/14 07:40:08;;;;;;;6.45;4.57;;;;;;;24.56;74.76;91135.47;5017028;28;20038;-68
2022/06/14 07:42:45;;;;;;;4.35;3.20;;;;;;;24.48;70.23;91139.38;5016962;28;20099;-68
2022/06/14 07:45:16;;;;;;;3.92;3.30;;;;;;;24.87;67.60;91138.53;5017096;28;20395;-68
2022/06/14 07:47:55;;;;;;;3.65;3.20;;;;;;;25.44;63.23;91144.66;5017033;28;20056;-68
2022/06/14 07:50:23;;;;;;;3.58;2.90;;;;;;;25.46;63.16;91147.75;5017032;28;20025;-67
2022/06/14 07:53:18;;;;;;;3.22;2.90;;;;;;;27.41;58.78;91142.13;5017079;28;20034;-68
2022/06/14 07:55:50;;;;;;;4.20;2.95;;;;;;;27.24;57.84;91145.84;4999420;28;20112;-67
2022/06/14 07:58:22;;;;;;;3.28;2.97;;;;;;;27.27;58.16;91145.78;5017017;28;20029;-69
2022/06/14 08:01:09;;;;;;;5.40;4.00;;;;;;;26.38;60.05;91148.50;5017057;28;20026;-69
2022/06/14 08:04:21;;;;;;;3.90;2.97;;;;;;;26.88;59.02;91148.09;5016469;28;20030;-70
2022/06/14 08:06:53;;;;;;;4.45;3.33;;;;;;;27.11;59.93;91151.81;4971647;28;20046;-69
2022/06/14 08:09:29;;;;;;;3.72;2.90;;;;;;;27.48;58.71;91150.28;5004961;28;20038;-69
2022/06/14 08:11:58;;;;;;;3.83;2.85;;;;;;;25.64;59.86;91159.38;4994160;28;20045;-68
2022/06/14 08:14:32;;;;;;;4.72;3.33;;;;;;;25.61;63.02;91160.16;4994101;28;20389;-68
2022/06/14 08:16:59;;;;;;;4.90;3.63;;;;;;;24.90;72.60;91157.56;4993510;28;20503;-68
2022/06/14 08:19:34;;;;;;;7.80;4.57;;;;;;;24.66;80.40;91150.22;4993915;28;20117;-67
2022/06/14 08:22:12;;;;;;;4.60;3.50;;;;;;;24.15;82.17;91154.84;4994064;28;20053;-68
2022/06/14 08:24:45;;;;;;;4.78;3.90;;;;;;;23.59;84.82;91158.97;4993864;28;20034;-67
2022/06/14 08:27:14;;;;;;;4.60;3.53;;;;;;;23.79;81.20;91151.25;4993862;28;20030;-70
2022/06/14 08:29:51;;;;;;;5.60;4.05;;;;;;;23.60;79.65;91151.59;4993761;28;20034;-69
2022/06/14 08:32:25;;;;;;;4.22;3.83;;;;;;;23.11;78.92;91152.91;5012230;28;20030;-69
2022/06/14 08:34:59;;;;;;;3.20;2.90;;;;;;;22.47;70.08;91151.69;5026089;28;20038;-69
2022/06/14 08:37:34;;;;;;;4.75;2.78;;;;;;;22.86;72.32;91147.31;5020701;28;20025;-69
2022/06/14 08:40:12;;;;;;;6.35;2.95;;;;;;;23.13;72.31;91155.22;5032886;28;20411;-71
2022/06/14 08:42:43;;;;;;;5.30;3.17;;;;;;;22.41;73.10;91151.25;5009379;28;20031;-73
2022/06/14 08:45:17;;;;;;;3.30;2.88;;;;;;;22.29;79.79;91152.31;5000761;28;20109;-73
2022/06/14 08:48:24;;;;;;;4.07;3.20;;;;;;;22.48;79.60;91154.00;4994112;28;20057;-73
2022/06/14 08:51:13;;;;;;;3.97;3.05;;;;;;;22.39;82.88;91148.91;4985974;28;20060;-73
2022/06/14 08:53:59;;;;;;;3.53;3.22;;;;;;;22.42;82.70;91152.81;5011664;28;20030;-73
2022/06/14 08:56:43;;;;;;;4.05;3.70;;;;;;;22.30;80.68;91153.09;5018883;28;20075;-73
2022/06/14 08:59:17;;;;;;;7.70;3.42;;;;;;;22.13;79.30;91146.38;5032501;28;20025;-75
2022/06/14 09:02:09;;;;;;;3.60;3.05;;;;;;;22.23;78.43;91155.72;5032167;28;20084;-73
2022/06/14 09:04:55;;;;;;;3.55;3.13;;;;;;;22.36;74.49;91152.38;5032178;28;20038;-75
2022/06/14 09:07:32;;;;;;;5.82;3.35;;;;;;;22.85;70.31;91156.63;5017635;28;20033;-73
2022/06/14 09:10:27;;;;;;;3.90;3.20;;;;;;;23.90;68.19;91156.72;5012231;28;20073;-75
2022/06/14 09:13:20;;;;;;;5.35;2.85;;;;;;;25.21;68.37;91153.28;5004647;28;20038;-75
2022/06/14 09:16:07;;;;;;;5.32;2.80;;;;;;;26.24;62.42;91157.53;5013621;28;20507;-72
2022/06/14 09:18:36;;;;;;;3.10;2.80;;;;;;;27.91;56.20;91153.28;5031477;28;20034;-75
2022/06/14 09:21:30;;;;;;;2.90;2.60;;;;;;;27.56;53.45;91154.47;5032299;28;20025;-75
2022/06/14 09:24:11;;;;;;;2.33;2.13;;;;;;;27.40;52.21;91151.50;5031146;28;20032;-75
2022/06/14 09:27:07;;;;;;;2.80;2.60;;;;;;;27.86;53.84;91151.00;5022540;28;20096;-72
2022/06/14 09:29:35;;;;;;;5.05;3.85;;;;;;;28.07;50.43;91152.69;5025810;28;20108;-72
2022/06/14 09:32:07;;;;;;;9.88;6.82;;;;;;;28.01;51.91;91152.38;5025885;28;20029;-72
2022/06/14 09:35:15;;;;;;;2.75;2.53;;;;;;;26.88;54.87;91150.84;5027938;28;20188;-71
2022/06/14 09:37:53;;;;;;;3.40;3.10;;;;;;;26.05;56.88;91155.31;5014983;28;20037;-72
2022/06/14 09:40:49;;;;;;;3.00;2.30;;;;;;;25.48;56.21;91166.44;5025934;28;20021;-72
2022/06/14 09:44:22;;;;;;;4.78;2.30;;;;;;;25.81;58.05;91155.03;5027350;28;20037;-72
2022/06/14 09:46:57;;;;;;;2.83;2.63;;;;;;;26.59;53.19;91148.34;4938313;29;20529;-73
2022/06/14 09:49:44;;;;;;;2.20;2.00;;;;;;;24.54;55.23;91145.19;4951261;29;20464;-72
2022/06/14 09:52:37;;;;;;;4.03;2.53;;;;;;;24.85;55.11;91138.16;4997908;28;20038;-71
2022/06/14 09:55:17;;;;;;;2.55;2.35;;;;;;;25.44;53.57;91138.44;5012325;28;20427;-71
2022/06/14 09:58:27;;;;;;;4.72;2.10;;;;;;;26.21;54.28;91144.69;5011933;28;20436;-71
2022/06/14 10:01:34;;;;;;;2.10;2.00;;;;;;;26.27;53.96;91148.53;5009878;28;20567;-72
2022/06/14 10:04:21;;;;;;;53.20;27.67;;;;;;;28.17;49.12;91142.78;4999010;28;20507;-71
2022/06/14 10:07:38;;;;;;;4.75;3.08;;;;;;;31.63;44.49;91147.69;5012011;28;20022;-71
2022/06/14 10:10:31;;;;;;;6.00;2.33;;;;;;;33.09;39.70;91143.44;4989108;28;20052;-70
2022/06/14 10:13:05;;;;;;;;;;;;;;;33.70;38.70;91133.94;5012226;28;20128;-72
2022/06/14 10:15:49;;;;;;;3.88;2.85;;;;;;;32.39;39.32;91134.19;5010490;28;19910;-72
2022/06/14 10:18:33;;;;;;;2.60;2.05;;;;;;;33.85;36.11;91118.44;5011565;28;20030;-71
2022/06/14 10:21:13;;;;;;;2.15;1.95;;;;;;;35.85;34.67;91114.94;5011742;28;20112;-71
2022/06/14 10:24:12;;;;;;;1.70;1.60;;;;;;;38.64;30.63;91111.31;5011767;28;20030;-71
2022/06/14 10:30:06;;;;;;;4.50;2.67;;;;;;;35.31;35.26;91113.59;5011439;28;20137;-72
2022/06/14 10:32:46;;;;;;;4.00;3.60;;;;;;;32.21;40.20;91101.66;5011371;28;20069;-72
2022/06/14 10:35:47;;;;;;;3.25;2.97;;;;;;;30.24;42.75;91091.38;5010190;28;20026;-71
2022/06/14 10:38:21;;;;;;;3.65;3.35;;;;;;;29.70;45.04;91093.72;4995807;28;20109;-71
2022/06/14 10:40:59;;;;;;;2.58;2.38;;;;;;;29.06;45.83;91071.03;5011465;28;20209;-71
2022/06/14 10:43:39;;;;;;;2.60;2.00;;;;;;;30.32;42.65;91070.06;5011371;28;20407;-71
2022/06/14 10:46:16;;;;;;;2.60;2.40;;;;;;;30.86;42.50;91064.81;5011419;28;20026;-70
2022/06/14 10:49:00;;;;;;;2.47;2.28;;;;;;;33.43;38.18;91071.78;5011148;28;20038;-71
2022/06/14 10:51:44;;;;;;;4.70;2.20;;;;;;;35.52;36.78;91069.72;5011553;28;20030;-72
2022/06/14 10:54:21;;;;;;;5.72;2.00;;;;;;;35.72;35.10;91070.00;5010043;28;20026;-72
2022/06/14 10:56:56;;;;;;;2.03;1.92;;;;;;;34.20;37.25;91080.44;5011255;28;20025;-72
2022/06/14 10:59:47;;;;;;;2.60;2.30;;;;;;;31.54;41.40;91074.06;5011182;28;20025;-72
2022/06/14 11:02:49;;;;;;;2.40;2.13;;;;;;;29.30;45.58;91081.94;5011419;28;20463;-72
2022/06/14 11:05:36;;;;;;;3.72;2.65;;;;;;;26.10;52.91;91087.50;5011289;28;20041;-74
2022/06/14 11:08:38;;;;;;;2.65;2.45;;;;;;;24.25;57.68;91088.03;4987638;28;20031;-71
2022/06/14 11:11:06;;;;;;;2.95;2.60;;;;;;;23.39;61.53;91097.19;4971863;28;20074;-72
2022/06/14 11:13:47;;;;;;;8.55;5.22;;;;;;;22.90;64.41;91093.09;4971951;28;20493;-71
2022/06/14 11:16:46;;;;;;;3.15;2.67;;;;;;;22.36;67.51;91094.66;4971900;28;20516;-71
2022/06/14 11:19:31;;;;;;;4.78;2.67;;;;;;;21.97;69.28;91094.34;4971652;28;20038;-70
2022/06/14 11:22:23;;;;;;;4.20;2.67;;;;;;;21.90;73.61;91100.47;4971537;28;20031;-71
2022/06/14 11:25:07;;;;;;;2.47;2.28;;;;;;;21.79;73.06;91099.59;4971793;28;20481;-70
2022/06/14 11:27:39;;;;;;;4.95;2.60;;;;;;;21.72;75.65;91108.41;4971849;28;20033;-70
2022/06/14 11:30:24;;;;;;;2.72;2.47;;;;;;;21.48;80.64;91136.03;4971601;28;20488;-71
2022/06/14 11:33:12;;;;;;;2.58;2.38;;;;;;;20.60;85.68;91126.38;4971778;28;20042;-69
2022/06/14 11:35:55;;;;;;;2.88;2.55;;;;;;;19.84;91.93;91122.84;4971755;28;20174;-70
2022/06/14 11:38:52;;;;;;;2.58;1.77;;;;;;;19.52;98.30;91132.28;4971300;28;20503;-70
2022/06/14 11:41:23;;;;;;;3.35;2.75;;;;;;;19.09;100.00;91126.06;4971939;28;20031;-70
2022/06/14 11:44:17;;;;;;;3.47;2.40;;;;;;;18.93;100.00;91128.81;4975515;28;20053;-72
2022/06/14 11:46:55;;;;;;;3.17;2.38;;;;;;;18.89;100.00;91133.38;4958757;28;20122;-76
2022/06/14 11:49:32;;;;;;;3.47;2.88;;;;;;;18.77;100.00;91142.34;4975061;28;20038;-69
2022/06/14 11:52:03;;;;;;;3.92;2.90;;;;;;;18.69;100.00;91135.28;4974808;28;20501;-69
2022/06/14 11:54:49;;;;;;;4.60;3.08;;;;;;;18.66;100.00;91122.50;4978381;28;20031;-69
2022/06/14 11:57:25;;;;;;;2.92;2.35;;;;;;;18.82;100.00;91128.63;4974927;28;20059;-70
2022/06/14 12:00:17;;;;;;;2.58;2.13;;;;;;;18.91;100.00;91136.50;4974885;28;20034;-68
2022/06/14 12:03:01;;;;;;;2.40;2.20;;;;;;;18.96;100.00;91136.22;4974904;28;20041;-69
2022/06/14 12:05:45;;;;;;;;;;;;;;;19.45;97.13;91138.31;4975329;28;20493;-69
2022/06/14 12:08:16;;;;;;;;;;;;;;;19.70;92.77;91130.69;4974883;28;19914;-70
2022/06/14 12:11:06;;;;;;;4.10;2.15;;;;;;;19.84;91.83;91133.66;4993802;28;19918;-70
2022/06/14 12:13:53;;;;;;;2.17;1.98;;;;;;;20.00;87.33;91137.00;4994325;28;20030;-75
2022/06/14 12:16:37;;;;;;;3.05;2.40;;;;;;;20.16;88.41;91142.28;4992844;28;20023;-71
2022/06/14 12:19:07;;;;;;;;;;;;;;;20.51;87.59;91152.91;4994516;28;20053;-69
2022/06/14 12:21:39;;;;;;;5.38;2.25;;;;;;;20.71;88.28;91158.22;4976222;28;20024;-67
2022/06/14 12:24:09;;;;;;;4.27;2.10;;;;;;;20.75;87.48;91162.50;4994034;28;20026;-68
2022/06/14 12:26:48;;;;;;;2.92;2.50;;;;;;;20.70;90.55;91159.34;5008882;28;20030;-68
2022/06/14 12:29:29;;;;;;;2.92;2.40;;;;;;;20.70;91.49;91156.66;4993791;28;20054;-68
2022/06/14 12:32:21;;;;;;;4.18;2.58;;;;;;;20.79;91.26;91157.94;4993850;28;20170;-68
2022/06/14 12:34:57;;;;;;;3.28;2.55;;;;;;;20.67;86.81;91158.16;4993802;28;20118;-68
2022/06/14 12:37:54;;;;;;;4.80;2.30;;;;;;;20.36;86.78;91150.31;4993340;28;20121;-69